首页
METAR-TAF:

METAR-TAF

机场 :

罗德兹, 法国

纬度: 44-24N, 经度: 002-29E, 海拔: 581米

当前天气观测

该预报发布于24分钟前的03:00 UTC
风速2节,风向南转南东
温度 2°C
湿度 93%
气压 1031 hPa
能见度10公里或以上
1500米以下无云,无积雨云

METAR: LFCR 260300Z AUTO 16002KT CAVOK 02/01 Q1031 TEMPO 0500 FG VV///

时间: 04:24 (03:24 UTC)

预报

该预报发布于4小时和24分钟前的23:00 UTC
预报有效从26日的 00点(UTC)到 26日的 24点(UTC)
风速3节,风向多变
能见度10公里或以上
1500米以下无云,无积雨云
几率 40%
从 26日的 03点(UTC)到 26日的 09点(UTC)
能見度: 4000
轻雾
几率 30%
从 26日的 04点(UTC)到 26日的 08点(UTC)
能見度: 0500
短暂存在
从 26日的 15点(UTC)到 26日的 18点(UTC)
风速10节,风向西转西北

TAF: LFCR 252300Z 2600/2624 VRB03KT CAVOK PROB40 2603/2609 4000 BR PROB30 2604/2608 0500 FG VV/// TEMPO 2615/2618 29010KT

超过4000个机场的气象观测和天气预报(METAR&TAF报告)。

可查询的气象台以黄色和红色小点在地图上表示。

将鼠标移到小点上方,可查看气象台名称。

然后点击查看天气观测和预报。

如需切换地图:点击带黑十字的绿色按钮放大地图;点击带横线的绿色按钮缩小地图;或者点击绿色箭头查看邻近地区的地图。


METAR-TAF: